createdAt,value
2022-08-10T00:00:39.411Z,23.53
2022-08-10T00:01:39.477Z,23.36
2022-08-10T00:02:39.384Z,23.36
2022-08-10T00:03:39.376Z,22.56
2022-08-10T00:04:39.359Z,23.42
2022-08-10T00:05:43.718Z,22.67
2022-08-10T00:06:39.339Z,22.72
2022-08-10T00:07:39.317Z,23.31
2022-08-10T00:08:39.313Z,23.20
2022-08-10T00:09:50.758Z,22.77
2022-08-10T00:10:39.279Z,22.34
2022-08-10T00:11:39.264Z,22.93
2022-08-10T00:12:53.480Z,22.72
2022-08-10T00:13:39.236Z,22.72
2022-08-10T00:14:39.230Z,22.72
2022-08-10T00:15:52.463Z,22.56
2022-08-10T00:16:39.204Z,22.72
2022-08-10T00:17:39.188Z,23.42
2022-08-10T00:18:39.177Z,23.31
2022-08-10T00:20:02.477Z,22.83
2022-08-10T00:20:39.147Z,22.67
2022-08-10T00:21:39.129Z,22.72
2022-08-10T00:22:53.030Z,22.40
2022-08-10T00:23:39.100Z,22.83
2022-08-10T00:24:43.050Z,22.88
2022-08-10T00:25:39.079Z,22.72
2022-08-10T00:27:51.630Z,22.67
2022-08-10T00:28:00.949Z,23.26
2022-08-10T00:28:39.040Z,23.26
2022-08-10T00:29:39.025Z,22.72
2022-08-10T00:30:39.006Z,22.99
2022-08-10T00:31:58.078Z,22.83
2022-08-10T00:32:38.982Z,23.20
2022-08-10T00:33:38.969Z,22.88
2022-08-10T00:34:38.957Z,22.77
2022-08-10T00:35:38.938Z,22.83
2022-08-10T00:36:38.926Z,23.42
2022-08-10T00:37:38.910Z,22.83
2022-08-10T00:38:38.907Z,23.31
2022-08-10T00:39:39.295Z,23.31
2022-08-10T00:40:38.879Z,22.77
2022-08-10T00:41:38.866Z,22.77
2022-08-10T00:42:38.846Z,22.67
2022-08-10T00:43:38.932Z,22.67
2022-08-10T00:44:38.823Z,22.72
2022-08-10T00:45:38.807Z,23.26
2022-08-10T00:46:38.800Z,22.67
2022-08-10T00:47:38.780Z,22.93
2022-08-10T00:48:38.773Z,22.83
2022-08-10T00:49:38.754Z,22.72
2022-08-10T00:50:38.745Z,22.99
2022-08-10T00:51:48.576Z,22.72
2022-08-10T00:52:38.715Z,22.77
2022-08-10T00:53:38.703Z,22.72
2022-08-10T00:54:38.689Z,23.53
2022-08-10T00:56:35.146Z,22.72
2022-08-10T00:57:15.872Z,22.77
2022-08-10T00:57:38.640Z,22.77
2022-08-10T00:58:39.406Z,22.83
2022-08-10T00:59:38.612Z,23.26
2022-08-10T01:00:39.625Z,23.36
2022-08-10T01:02:10.045Z,22.83
2022-08-10T01:02:39.002Z,23.31
2022-08-10T01:04:40.326Z,22.83
2022-08-10T01:05:00.064Z,22.72
2022-08-10T01:05:51.606Z,23.31
2022-08-10T01:06:38.535Z,22.77
2022-08-10T01:07:38.509Z,22.67
2022-08-10T01:08:38.501Z,23.26
2022-08-10T01:09:38.487Z,23.26
2022-08-10T01:10:38.470Z,22.77
2022-08-10T01:12:34.129Z,23.36
2022-08-10T01:12:41.578Z,22.83
2022-08-10T01:13:38.429Z,23.42
2022-08-10T01:14:38.422Z,22.93
2022-08-10T01:15:38.403Z,22.72
2022-08-10T01:16:38.390Z,23.36
2022-08-10T01:17:50.795Z,22.67
2022-08-10T01:18:39.388Z,22.67
2022-08-10T01:19:38.346Z,23.42
2022-08-10T01:20:38.340Z,22.77
2022-08-10T01:21:38.322Z,23.31
2022-08-10T01:22:38.320Z,22.88
2022-08-10T01:23:38.306Z,23.36
2022-08-10T01:24:38.286Z,23.36
2022-08-10T01:26:12.372Z,23.26
2022-08-10T01:26:40.811Z,23.42
2022-08-10T01:27:38.237Z,22.72
2022-08-10T01:28:38.230Z,23.31
2022-08-10T01:29:38.210Z,23.26
2022-08-10T01:30:38.201Z,22.72
2022-08-10T01:31:38.180Z,23.36
2022-08-10T01:32:38.174Z,23.26
2022-08-10T01:33:58.393Z,22.77
2022-08-10T01:34:38.149Z,23.36
2022-08-10T01:35:38.138Z,23.31
2022-08-10T01:36:38.127Z,22.77
2022-08-10T01:37:38.107Z,22.72
2022-08-10T01:38:38.097Z,23.31
2022-08-10T01:39:38.188Z,23.31
2022-08-10T01:40:38.074Z,23.31
2022-08-10T01:41:45.584Z,22.67
2022-08-10T01:42:38.039Z,23.36
2022-08-10T01:43:38.022Z,23.36
2022-08-10T01:44:38.015Z,23.31
2022-08-10T01:45:44.918Z,22.72
2022-08-10T01:46:37.988Z,22.77
2022-08-10T01:47:37.972Z,22.83
2022-08-10T01:48:37.960Z,23.15
2022-08-10T01:49:37.952Z,23.31
2022-08-10T01:50:58.939Z,23.20
2022-08-10T01:51:37.916Z,22.83
2022-08-10T01:52:37.911Z,23.36
2022-08-10T01:53:40.877Z,23.42
2022-08-10T01:54:37.876Z,22.72
2022-08-10T01:55:37.864Z,22.77
2022-08-10T01:56:37.868Z,23.36
2022-08-10T01:57:37.831Z,23.31
2022-08-10T01:58:37.827Z,23.20
2022-08-10T01:59:37.812Z,23.31
2022-08-10T02:00:37.800Z,22.77
2022-08-10T02:01:37.890Z,22.77
2022-08-10T02:02:37.793Z,22.72
2022-08-10T02:04:03.913Z,22.77
2022-08-10T02:04:37.742Z,22.83
2022-08-10T02:05:37.720Z,22.83
2022-08-10T02:06:37.716Z,23.58
2022-08-10T02:07:38.778Z,22.67
2022-08-10T02:08:37.691Z,22.61
2022-08-10T02:09:37.677Z,22.88
2022-08-10T02:10:37.664Z,23.26
2022-08-10T02:12:05.737Z,23.36
2022-08-10T02:12:38.664Z,23.26
2022-08-10T02:13:37.618Z,23.15
2022-08-10T02:14:37.604Z,22.72
2022-08-10T02:15:37.592Z,22.67
2022-08-10T02:16:37.579Z,23.31
2022-08-10T02:18:00.083Z,23.26
2022-08-10T02:18:38.570Z,23.20
2022-08-10T02:19:37.544Z,22.72
2022-08-10T02:20:37.524Z,22.72
2022-08-10T02:21:37.513Z,23.31
2022-08-10T02:22:39.069Z,23.31
2022-08-10T02:23:37.484Z,22.77
2022-08-10T02:24:37.466Z,23.36
2022-08-10T02:25:41.848Z,22.72
2022-08-10T02:26:37.440Z,22.72
2022-08-10T02:27:37.434Z,22.93
2022-08-10T02:28:37.413Z,22.67
2022-08-10T02:29:37.402Z,23.26
2022-08-10T02:30:37.383Z,22.77
2022-08-10T02:31:37.393Z,23.36
2022-08-10T02:32:38.047Z,22.77
2022-08-10T02:33:38.119Z,23.31
2022-08-10T02:34:37.332Z,22.72
2022-08-10T02:35:54.743Z,23.26
2022-08-10T02:36:38.327Z,23.20
2022-08-10T02:37:37.298Z,23.53
2022-08-10T02:38:59.830Z,22.50
2022-08-10T02:39:38.347Z,23.36
2022-08-10T02:42:18.623Z,23.20
2022-08-10T02:45:14.337Z,23.36
2022-08-10T02:45:22.199Z,23.42
2022-08-10T02:45:23.047Z,23.31
2022-08-10T02:45:23.960Z,22.67
2022-08-10T02:45:37.693Z,22.83
2022-08-10T02:46:37.173Z,22.77
2022-08-10T02:47:50.927Z,23.36
2022-08-10T02:48:37.142Z,22.72
2022-08-10T02:49:37.129Z,22.72
2022-08-10T02:50:37.112Z,22.77
2022-08-10T02:52:06.782Z,22.93
2022-08-10T02:52:37.243Z,23.36
2022-08-10T02:53:56.010Z,22.72
2022-08-10T02:54:38.091Z,23.26
2022-08-10T02:55:37.054Z,23.31
2022-08-10T02:56:37.038Z,23.26
2022-08-10T02:57:37.027Z,23.31
2022-08-10T02:58:37.005Z,22.77
2022-08-10T02:59:38.636Z,23.31
2022-08-10T03:00:36.994Z,22.67
2022-08-10T03:01:37.058Z,22.77
2022-08-10T03:02:37.207Z,23.36
2022-08-10T03:03:36.945Z,23.26
2022-08-10T03:04:56.161Z,22.93
2022-08-10T03:05:36.913Z,23.36
2022-08-10T03:06:36.901Z,23.31
2022-08-10T03:07:43.196Z,23.36
2022-08-10T03:08:36.868Z,23.36
2022-08-10T03:09:36.862Z,22.83
2022-08-10T03:10:39.526Z,22.72
2022-08-10T03:12:35.228Z,23.31
2022-08-10T03:12:38.946Z,22.67
2022-08-10T03:13:36.803Z,22.77
2022-08-10T03:14:36.794Z,22.67
2022-08-10T03:15:36.773Z,22.77
2022-08-10T03:16:36.768Z,22.72
2022-08-10T03:17:36.754Z,22.77
2022-08-10T03:18:36.735Z,23.31
2022-08-10T03:20:34.033Z,22.83
2022-08-10T03:20:39.960Z,22.72
2022-08-10T03:21:36.693Z,23.31
2022-08-10T03:22:36.841Z,23.36
2022-08-10T03:23:36.676Z,23.31
2022-08-10T03:24:36.651Z,23.47
2022-08-10T03:25:36.647Z,23.36
2022-08-10T03:26:36.630Z,23.20
2022-08-10T03:27:36.610Z,23.36
2022-08-10T03:28:36.602Z,22.77
2022-08-10T03:30:23.342Z,22.93
2022-08-10T03:30:36.571Z,23.26
2022-08-10T03:31:36.563Z,22.67
2022-08-10T03:32:36.791Z,22.88
2022-08-10T03:33:36.538Z,22.77
2022-08-10T03:34:36.518Z,23.31
2022-08-10T03:35:36.503Z,22.99
2022-08-10T03:36:42.927Z,23.36
2022-08-10T03:37:36.480Z,22.88
2022-08-10T03:38:36.470Z,22.72
2022-08-10T03:39:36.527Z,22.72
2022-08-10T03:40:46.254Z,23.31
2022-08-10T03:41:36.419Z,23.36
2022-08-10T03:42:36.661Z,23.26
2022-08-10T03:43:36.399Z,22.72
2022-08-10T03:44:36.380Z,23.26
2022-08-10T03:45:55.136Z,23.26
2022-08-10T03:46:36.354Z,23.26
2022-08-10T03:47:36.356Z,23.36
2022-08-10T03:48:49.104Z,22.77
2022-08-10T03:49:36.324Z,23.36
2022-08-10T03:50:51.456Z,23.26
2022-08-10T03:51:36.293Z,23.31
2022-08-10T03:52:36.479Z,23.69
2022-08-10T03:54:04.908Z,22.72
2022-08-10T03:54:37.274Z,22.77
2022-08-10T03:56:30.182Z,22.72
2022-08-10T03:56:36.229Z,23.36
2022-08-10T03:57:36.212Z,23.26
2022-08-10T03:58:36.189Z,22.77
2022-08-10T03:59:36.198Z,22.61
2022-08-10T04:00:36.229Z,22.67
2022-08-10T04:02:46.666Z,22.67
2022-08-10T04:02:52.285Z,22.72
2022-08-10T04:03:36.136Z,23.31
2022-08-10T04:04:36.109Z,22.67
2022-08-10T04:05:38.134Z,23.36
2022-08-10T04:06:36.090Z,22.72
2022-08-10T04:07:36.073Z,23.26
2022-08-10T04:08:36.056Z,23.26
2022-08-10T04:09:54.169Z,23.31
2022-08-10T04:10:36.032Z,23.31
2022-08-10T04:11:36.012Z,23.26
2022-08-10T04:12:36.168Z,22.88
2022-08-10T04:13:35.994Z,23.26
2022-08-10T04:14:47.552Z,22.72
2022-08-10T04:15:36.991Z,23.31
2022-08-10T04:16:35.947Z,23.26
2022-08-10T04:18:04.121Z,23.31
2022-08-10T04:18:35.917Z,23.42
2022-08-10T04:19:35.910Z,22.77
2022-08-10T04:20:35.893Z,23.31
2022-08-10T04:21:35.886Z,23.31
2022-08-10T04:22:36.135Z,22.72
2022-08-10T04:23:35.867Z,23.36
2022-08-10T04:24:35.836Z,23.10
2022-08-10T04:25:35.843Z,23.47
2022-08-10T04:26:35.817Z,23.26
2022-08-10T04:27:35.801Z,22.67
2022-08-10T04:28:35.785Z,22.72
2022-08-10T04:29:35.778Z,22.93
2022-08-10T04:30:35.758Z,23.42
2022-08-10T04:31:35.743Z,23.31
2022-08-10T04:32:35.885Z,22.99
2022-08-10T04:33:35.721Z,23.42
2022-08-10T04:34:35.703Z,22.83
2022-08-10T04:35:35.694Z,23.42
2022-08-10T04:36:35.679Z,22.77
2022-08-10T04:37:35.664Z,22.83
2022-08-10T04:38:35.650Z,22.77
2022-08-10T04:39:35.767Z,22.72
2022-08-10T04:40:35.627Z,23.26
2022-08-10T04:41:35.622Z,23.26
2022-08-10T04:42:35.831Z,23.36
2022-08-10T04:43:35.588Z,22.83
2022-08-10T04:44:35.569Z,23.31
2022-08-10T04:45:49.407Z,23.26
2022-08-10T04:46:55.190Z,23.31
2022-08-10T04:47:51.169Z,22.67
2022-08-10T04:48:42.990Z,23.36
2022-08-10T04:49:54.930Z,23.47
2022-08-10T04:50:35.483Z,22.83
2022-08-10T04:51:35.472Z,22.72
2022-08-10T04:52:35.670Z,23.31
2022-08-10T04:54:04.057Z,23.26
2022-08-10T04:54:35.439Z,22.93
2022-08-10T04:55:35.426Z,23.47
2022-08-10T04:56:35.406Z,22.77
2022-08-10T04:57:35.399Z,23.47
2022-08-10T04:58:35.376Z,22.67
2022-08-10T04:59:35.366Z,22.83
2022-08-10T05:00:35.374Z,22.72
2022-08-10T05:02:21.847Z,50.33
2022-08-10T05:02:36.378Z,50.22
2022-08-10T05:03:35.313Z,50.17
2022-08-10T05:04:39.372Z,33.41
2022-08-10T05:05:35.293Z,29.81
2022-08-10T05:06:35.269Z,27.82
2022-08-10T05:07:54.255Z,27.88
2022-08-10T05:08:35.241Z,26.86
2022-08-10T05:10:01.273Z,26.53
2022-08-10T05:10:35.211Z,26.32
2022-08-10T05:11:35.206Z,26.16
2022-08-10T05:12:35.904Z,25.62
2022-08-10T05:13:35.178Z,25.19
2022-08-10T05:14:35.163Z,25.14
2022-08-10T05:15:35.151Z,25.14
2022-08-10T05:16:35.132Z,25.14
2022-08-10T05:17:35.122Z,24.60
2022-08-10T05:18:35.108Z,24.76
2022-08-10T05:20:02.111Z,24.71
2022-08-10T05:20:35.088Z,24.12
2022-08-10T05:22:04.661Z,24.06
2022-08-10T05:22:35.494Z,23.69
2022-08-10T05:23:35.045Z,24.12
2022-08-10T05:24:35.027Z,24.01
2022-08-10T05:25:37.302Z,23.69
2022-08-10T05:26:39.153Z,23.69
2022-08-10T05:27:34.986Z,23.47
2022-08-10T05:28:35.322Z,23.42
2022-08-10T05:29:34.958Z,23.10
2022-08-10T05:30:34.946Z,23.26
2022-08-10T05:31:34.933Z,23.36
2022-08-10T05:32:56.599Z,23.79
2022-08-10T05:33:34.908Z,23.42
2022-08-10T05:34:34.888Z,22.72
2022-08-10T05:35:57.508Z,22.83
2022-08-10T05:36:35.881Z,23.31
2022-08-10T05:38:09.627Z,23.26
2022-08-10T05:38:34.832Z,22.83
2022-08-10T05:39:34.901Z,23.26
2022-08-10T05:40:34.809Z,23.26
2022-08-10T05:41:34.800Z,22.67
2022-08-10T05:42:35.061Z,22.72
2022-08-10T05:43:34.773Z,22.67
2022-08-10T05:44:34.761Z,22.61
2022-08-10T05:45:34.748Z,22.29
2022-08-10T05:46:34.727Z,22.50
2022-08-10T05:48:54.138Z,22.29
2022-08-10T05:48:54.415Z,22.29
2022-08-10T05:49:34.691Z,22.45
2022-08-10T05:50:34.693Z,22.40
2022-08-10T05:51:34.659Z,22.29
2022-08-10T05:52:34.807Z,22.77
2022-08-10T05:54:03.570Z,22.29
2022-08-10T05:54:34.613Z,22.29
2022-08-10T05:55:34.607Z,22.29
2022-08-10T05:56:53.809Z,22.88
2022-08-10T05:57:34.586Z,22.24
2022-08-10T05:58:34.566Z,22.40
2022-08-10T06:00:33.200Z,22.34
2022-08-10T06:00:41.849Z,22.29
2022-08-10T06:01:35.604Z,22.13
2022-08-10T06:02:35.615Z,22.24
2022-08-10T06:03:34.503Z,22.45
2022-08-10T06:04:34.483Z,22.02
2022-08-10T06:05:34.475Z,22.29
2022-08-10T06:06:34.458Z,21.86
2022-08-10T06:07:34.606Z,22.45
2022-08-10T06:08:34.428Z,22.02
2022-08-10T06:09:34.420Z,22.29
2022-08-10T06:10:35.598Z,22.34
2022-08-10T06:12:24.408Z,21.91
2022-08-10T06:12:54.173Z,21.91
2022-08-10T06:13:53.678Z,22.29
2022-08-10T06:14:34.352Z,21.97
2022-08-10T06:15:50.300Z,21.97
2022-08-10T06:16:34.941Z,22.02
2022-08-10T06:17:34.309Z,21.91
2022-08-10T06:18:34.292Z,21.97
2022-08-10T06:19:34.286Z,22.02
2022-08-10T06:20:36.283Z,21.97
2022-08-10T06:21:34.254Z,22.29
2022-08-10T06:22:34.243Z,22.08
2022-08-10T06:23:34.230Z,22.02
2022-08-10T06:24:34.216Z,21.97
2022-08-10T06:26:34.191Z,21.91
2022-08-10T06:27:34.907Z,22.24
2022-08-10T06:28:34.161Z,21.97
2022-08-10T06:29:34.155Z,22.40
2022-08-10T06:30:34.131Z,22.45
2022-08-10T06:31:47.510Z,21.75
2022-08-10T06:32:35.327Z,21.91
2022-08-10T06:33:34.096Z,22.34
2022-08-10T06:34:34.078Z,21.86
2022-08-10T06:35:34.061Z,22.02
2022-08-10T06:36:34.279Z,22.29
2022-08-10T06:37:34.035Z,22.40
2022-08-10T06:38:34.038Z,22.40
2022-08-10T06:39:35.637Z,22.02
2022-08-10T06:40:34.005Z,22.34
2022-08-10T06:42:15.309Z,21.32
2022-08-10T06:42:34.138Z,21.91
2022-08-10T06:43:33.964Z,21.81
2022-08-10T06:44:33.952Z,22.56
2022-08-10T06:45:34.615Z,21.32
2022-08-10T06:46:33.918Z,21.38
2022-08-10T06:47:33.910Z,22.34
2022-08-10T06:48:33.899Z,22.08
2022-08-10T06:49:33.874Z,22.40
2022-08-10T06:50:44.644Z,22.13
2022-08-10T06:51:33.850Z,22.08
2022-08-10T06:52:33.982Z,21.54
2022-08-10T06:53:52.941Z,21.43
2022-08-10T06:54:34.830Z,21.97
2022-08-10T06:55:50.128Z,21.27
2022-08-10T06:56:37.825Z,21.43
2022-08-10T06:57:33.780Z,22.18
2022-08-10T06:58:33.763Z,22.02
2022-08-10T06:59:33.752Z,21.91
2022-08-10T07:00:34.233Z,21.86
2022-08-10T07:01:33.815Z,22.24
2022-08-10T07:02:33.715Z,21.32
2022-08-10T07:03:33.693Z,21.32
2022-08-10T07:04:33.947Z,22.02
2022-08-10T07:05:33.671Z,22.40
2022-08-10T07:06:33.661Z,21.75
2022-08-10T07:07:33.754Z,21.97
2022-08-10T07:08:33.630Z,22.02
2022-08-10T07:09:33.616Z,21.91
2022-08-10T07:10:41.376Z,21.91
2022-08-10T07:11:33.582Z,21.91
2022-08-10T07:12:33.758Z,21.97
2022-08-10T07:14:17.478Z,21.43
2022-08-10T07:14:34.570Z,21.32
2022-08-10T07:15:59.641Z,22.40
2022-08-10T07:16:33.519Z,40.23
2022-08-10T07:17:37.315Z,45.22
2022-08-10T07:18:33.499Z,33.46
2022-08-10T07:19:33.481Z,31.26
2022-08-10T07:20:33.478Z,29.27
2022-08-10T07:21:33.459Z,28.31
2022-08-10T07:23:01.206Z,27.23
2022-08-10T07:23:57.559Z,27.55
2022-08-10T07:24:33.429Z,26.91
2022-08-10T07:25:33.402Z,26.86
2022-08-10T07:26:33.393Z,25.51
2022-08-10T07:27:58.804Z,25.46
2022-08-10T07:28:33.370Z,25.46
2022-08-10T07:29:53.220Z,25.57
2022-08-10T07:30:33.343Z,24.92
2022-08-10T07:31:55.866Z,24.65
2022-08-10T07:32:33.309Z,25.08
2022-08-10T07:33:33.294Z,25.19
2022-08-10T07:34:33.291Z,24.65
2022-08-10T07:35:41.891Z,24.17
2022-08-10T07:36:34.286Z,24.17
2022-08-10T07:37:33.242Z,24.65
2022-08-10T07:38:33.230Z,24.17
2022-08-10T07:40:01.938Z,23.58
2022-08-10T07:40:33.314Z,24.12
2022-08-10T07:41:33.187Z,23.90
2022-08-10T07:42:33.236Z,23.42
2022-08-10T07:43:33.162Z,23.69
2022-08-10T07:44:33.157Z,23.85
2022-08-10T07:45:33.146Z,23.36
2022-08-10T07:46:33.127Z,23.63
2022-08-10T07:47:46.104Z,23.26
2022-08-10T07:48:34.123Z,23.42
2022-08-10T07:49:33.087Z,22.72
2022-08-10T07:50:35.344Z,22.77
2022-08-10T07:51:33.060Z,23.42
2022-08-10T07:52:33.045Z,23.31
2022-08-10T07:53:33.026Z,22.67
2022-08-10T07:54:33.018Z,23.36
2022-08-10T07:56:04.830Z,23.42
2022-08-10T07:56:48.522Z,22.40
2022-08-10T07:57:34.825Z,22.77
2022-08-10T07:58:33.219Z,22.72
2022-08-10T07:59:32.960Z,22.77
2022-08-10T08:00:32.946Z,22.77
2022-08-10T08:01:33.058Z,22.40
2022-08-10T08:02:35.733Z,22.61
2022-08-10T08:03:32.904Z,22.83
2022-08-10T08:04:32.896Z,22.40
2022-08-10T08:05:58.173Z,22.40
2022-08-10T08:06:32.867Z,22.50
2022-08-10T08:07:32.851Z,22.83
2022-08-10T08:08:32.839Z,22.45
2022-08-10T08:09:32.824Z,22.29
2022-08-10T08:10:32.819Z,22.45
2022-08-10T08:11:32.804Z,22.50
2022-08-10T08:12:37.228Z,21.97
2022-08-10T08:13:32.775Z,22.34
2022-08-10T08:14:32.770Z,21.91
2022-08-10T08:16:16.797Z,22.29
2022-08-10T08:16:32.744Z,22.02
2022-08-10T08:17:35.631Z,22.29
2022-08-10T08:18:32.718Z,21.97
2022-08-10T08:19:37.103Z,22.40
2022-08-10T08:20:32.689Z,22.18
2022-08-10T08:24:08.725Z,22.50
2022-08-10T08:24:09.031Z,22.40
2022-08-10T08:24:10.168Z,21.97
2022-08-10T08:24:34.587Z,22.34
2022-08-10T08:25:32.633Z,22.45
2022-08-10T08:26:32.621Z,21.97
2022-08-10T08:27:32.604Z,22.02
2022-08-10T08:28:32.592Z,21.65
2022-08-10T08:29:32.584Z,22.08
2022-08-10T08:30:32.562Z,22.02
2022-08-10T08:31:32.550Z,22.29
2022-08-10T08:32:32.634Z,22.02
2022-08-10T08:33:41.603Z,21.54
2022-08-10T08:34:33.538Z,21.91
2022-08-10T08:35:32.505Z,21.97
2022-08-10T08:36:32.494Z,21.86
2022-08-10T08:38:29.875Z,21.97
2022-08-10T08:38:35.144Z,21.48
2022-08-10T08:39:32.504Z,22.08
2022-08-10T08:40:32.454Z,21.86
2022-08-10T08:41:32.435Z,21.43
2022-08-10T08:42:32.492Z,21.43
2022-08-10T08:43:32.501Z,22.02
2022-08-10T08:44:34.897Z,22.02
2022-08-10T08:45:32.386Z,21.32
2022-08-10T08:46:32.380Z,21.43
2022-08-10T08:48:03.924Z,21.91
2022-08-10T08:48:32.351Z,21.38
2022-08-10T08:50:04.578Z,21.38
2022-08-10T08:50:32.330Z,22.08
2022-08-10T08:52:17.276Z,21.38
2022-08-10T08:52:33.321Z,21.48
2022-08-10T08:54:02.400Z,21.91
2022-08-10T08:54:32.996Z,21.48
2022-08-10T08:56:03.116Z,21.32
2022-08-10T08:56:32.260Z,22.02
2022-08-10T08:57:50.264Z,21.48
2022-08-10T08:58:32.231Z,21.32
2022-08-10T08:59:32.215Z,21.43
2022-08-10T09:00:32.408Z,21.38
2022-08-10T09:01:40.452Z,21.97
2022-08-10T09:02:32.183Z,22.02
2022-08-10T09:03:32.168Z,21.38
2022-08-10T09:04:32.152Z,21.38
2022-08-10T09:05:32.145Z,21.43
2022-08-10T09:06:33.155Z,22.02
2022-08-10T09:08:00.394Z,21.38
2022-08-10T09:08:32.108Z,21.38
2022-08-10T09:09:32.097Z,21.91
2022-08-10T09:10:37.179Z,21.11
2022-08-10T09:11:32.074Z,21.48
2022-08-10T09:12:32.128Z,21.48
2022-08-10T09:13:32.050Z,21.43
2022-08-10T09:14:32.046Z,21.48
2022-08-10T09:15:40.524Z,21.43
2022-08-10T09:16:32.019Z,21.38
2022-08-10T09:17:32.007Z,21.43
2022-08-10T09:18:31.996Z,21.38
2022-08-10T09:19:35.517Z,21.27
2022-08-10T09:20:31.972Z,21.11
2022-08-10T09:21:31.962Z,21.27
2022-08-10T09:22:31.944Z,21.38
2022-08-10T09:24:01.971Z,21.11
2022-08-10T09:24:31.923Z,21.38
2022-08-10T09:25:31.919Z,21.11
2022-08-10T09:26:31.913Z,21.38
2022-08-10T09:27:33.033Z,21.43
2022-08-10T09:28:31.885Z,21.43
2022-08-10T09:29:31.863Z,21.43
2022-08-10T09:30:35.721Z,21.00
2022-08-10T09:31:32.870Z,21.48
2022-08-10T09:36:17.345Z,21.48
2022-08-10T09:36:22.958Z,21.00
2022-08-10T09:36:24.067Z,21.27
2022-08-10T09:36:29.438Z,21.05
2022-08-10T09:36:33.371Z,21.05
2022-08-10T09:37:39.484Z,21.00
2022-08-10T09:38:32.786Z,21.00
2022-08-10T09:40:12.315Z,21.38
2022-08-10T09:40:57.990Z,21.00
2022-08-10T09:41:32.868Z,21.38
2022-08-10T09:42:31.717Z,20.89
2022-08-10T09:43:31.713Z,21.48
2022-08-10T09:44:31.699Z,21.05
2022-08-10T09:45:31.683Z,21.11
2022-08-10T09:46:31.677Z,20.95
2022-08-10T09:48:00.824Z,21.05
2022-08-10T09:48:31.659Z,20.95
2022-08-10T09:49:53.842Z,21.11
2022-08-10T09:50:55.742Z,20.52
2022-08-10T09:51:45.389Z,20.79
2022-08-10T09:52:32.671Z,20.62
2022-08-10T09:53:31.596Z,21.00
2022-08-10T09:54:31.589Z,20.95
2022-08-10T09:56:17.325Z,21.11
2022-08-10T09:56:31.565Z,21.05
2022-08-10T09:57:43.928Z,21.11
2022-08-10T09:58:32.567Z,20.68
2022-08-10T10:00:00.651Z,20.62
2022-08-10T10:00:32.555Z,21.05
2022-08-10T10:01:57.911Z,50.11
2022-08-10T10:02:31.493Z,50.17
2022-08-10T10:03:31.602Z,45.12
2022-08-10T10:04:31.474Z,32.50
2022-08-10T10:05:31.464Z,29.22
2022-08-10T10:06:31.456Z,27.88
2022-08-10T10:07:31.435Z,27.45
2022-08-10T10:08:31.435Z,26.59
2022-08-10T10:09:31.412Z,26.10
2022-08-10T10:10:31.415Z,26.05
2022-08-10T10:11:31.391Z,25.62
2022-08-10T10:12:31.394Z,25.51
2022-08-10T10:14:01.465Z,25.24
2022-08-10T10:14:32.384Z,24.76
2022-08-10T10:15:31.353Z,25.30
2022-08-10T10:16:31.342Z,24.22
2022-08-10T10:17:31.324Z,24.28
2022-08-10T10:18:31.314Z,23.85
2022-08-10T10:19:31.307Z,23.74
2022-08-10T10:20:31.363Z,23.69
2022-08-10T10:21:54.421Z,23.58
2022-08-10T10:22:32.302Z,23.69
2022-08-10T10:23:31.256Z,23.42
2022-08-10T10:24:31.262Z,22.83
2022-08-10T10:25:50.359Z,23.42
2022-08-10T10:26:32.251Z,23.42
2022-08-10T10:27:31.213Z,22.72
2022-08-10T10:28:57.613Z,22.83
2022-08-10T10:29:56.546Z,23.31
2022-08-10T10:30:32.213Z,23.31
2022-08-10T10:31:31.202Z,22.77
2022-08-10T10:32:37.148Z,22.77
2022-08-10T10:33:31.150Z,22.40
2022-08-10T10:34:31.141Z,22.40
2022-08-10T10:35:31.125Z,22.45
2022-08-10T10:36:31.114Z,22.50
2022-08-10T10:38:10.419Z,22.45
2022-08-10T10:38:31.086Z,22.34
2022-08-10T10:39:31.148Z,22.40
2022-08-10T10:40:31.075Z,21.97
2022-08-10T10:41:31.057Z,22.40
2022-08-10T10:42:44.810Z,21.97
2022-08-10T10:43:31.036Z,22.08
2022-08-10T10:44:31.020Z,21.91
2022-08-10T10:45:31.017Z,22.02
2022-08-10T10:46:31.002Z,21.38
2022-08-10T10:47:30.994Z,22.45
2022-08-10T10:48:30.975Z,22.02
2022-08-10T10:49:30.969Z,21.97
2022-08-10T10:50:30.955Z,22.45
2022-08-10T10:51:30.946Z,22.56
2022-08-10T10:52:30.933Z,21.48
2022-08-10T10:53:30.923Z,21.54
2022-08-10T10:54:30.914Z,22.08
2022-08-10T10:55:30.902Z,21.81
2022-08-10T10:56:30.886Z,21.43
2022-08-10T10:57:58.184Z,21.91
2022-08-10T10:58:31.892Z,21.43
2022-08-10T10:59:53.834Z,21.27
2022-08-10T11:00:31.863Z,21.32
2022-08-10T11:01:30.859Z,21.91
2022-08-10T11:02:30.819Z,21.97
2022-08-10T11:03:30.810Z,21.43
2022-08-10T11:04:30.799Z,22.02
2022-08-10T11:05:30.802Z,22.02
2022-08-10T11:06:40.148Z,21.43
2022-08-10T11:07:31.746Z,21.43
2022-08-10T11:08:30.758Z,21.97
2022-08-10T11:10:08.850Z,22.02
2022-08-10T11:10:34.699Z,21.38
2022-08-10T11:12:01.884Z,21.43
2022-08-10T11:12:30.703Z,21.43
2022-08-10T11:14:24.715Z,21.38
2022-08-10T11:14:30.768Z,21.43
2022-08-10T11:15:30.671Z,21.59
2022-08-10T11:16:30.662Z,21.38
2022-08-10T11:17:30.652Z,21.54
2022-08-10T11:18:30.647Z,21.38
2022-08-10T11:20:02.453Z,21.00
2022-08-10T11:20:31.644Z,21.48
2022-08-10T11:21:30.619Z,21.22
2022-08-10T11:22:30.594Z,21.43
2022-08-10T11:23:31.607Z,21.43
2022-08-10T11:24:42.846Z,21.43
2022-08-10T11:25:30.564Z,21.38
2022-08-10T11:26:30.559Z,21.05
2022-08-10T11:27:30.556Z,21.48
2022-08-10T11:28:30.545Z,21.00
2022-08-10T11:29:30.528Z,21.05
2022-08-10T11:30:30.520Z,21.11
2022-08-10T11:31:30.513Z,21.05
2022-08-10T11:32:30.497Z,21.05
2022-08-10T11:33:30.843Z,21.16
2022-08-10T11:34:47.351Z,21.43
2022-08-10T11:35:34.618Z,21.43
2022-08-10T11:36:30.454Z,21.11
2022-08-10T11:37:30.444Z,21.54
2022-08-10T11:38:47.182Z,21.05
2022-08-10T11:39:30.494Z,21.00
2022-08-10T11:40:30.411Z,21.43
2022-08-10T11:42:09.752Z,21.05
2022-08-10T11:42:35.718Z,20.84
2022-08-10T11:43:30.391Z,21.05
2022-08-10T11:44:31.026Z,21.00
2022-08-10T11:45:30.372Z,20.62
2022-08-10T11:46:30.351Z,21.05
2022-08-10T11:47:30.346Z,21.00
2022-08-10T11:48:54.546Z,20.57
2022-08-10T11:49:30.323Z,21.11
2022-08-10T11:50:30.305Z,21.16
2022-08-10T11:51:30.308Z,21.00
2022-08-10T11:52:30.285Z,21.05
2022-08-10T11:53:35.214Z,21.05
2022-08-10T11:54:30.274Z,21.05
2022-08-10T11:55:30.266Z,21.00
2022-08-10T11:56:30.251Z,21.05
2022-08-10T11:57:52.937Z,21.05
2022-08-10T11:58:31.259Z,21.05
2022-08-10T11:59:30.214Z,21.05
2022-08-10T12:00:32.619Z,20.62
2022-08-10T12:01:30.196Z,21.05
2022-08-10T12:02:30.246Z,20.79
2022-08-10T12:03:34.419Z,20.62
2022-08-10T12:04:30.166Z,21.11
2022-08-10T12:05:54.447Z,21.05
2022-08-10T12:06:54.049Z,20.46
2022-08-10T12:10:03.935Z,20.95
2022-08-10T12:10:04.170Z,21.22
2022-08-10T12:10:07.521Z,20.68
2022-08-10T12:10:31.117Z,21.05
2022-08-10T12:11:30.089Z,20.84
2022-08-10T12:12:30.078Z,21.00
2022-08-10T12:13:30.066Z,20.57
2022-08-10T12:14:30.050Z,20.73
2022-08-10T12:15:30.040Z,20.68
2022-08-10T12:16:30.026Z,20.73
2022-08-10T12:17:30.013Z,21.00
2022-08-10T12:18:30.001Z,21.11
2022-08-10T12:19:29.992Z,20.62
2022-08-10T12:20:29.981Z,21.00
2022-08-10T12:21:29.976Z,20.95
2022-08-10T12:22:29.966Z,20.95
2022-08-10T12:23:30.085Z,20.84
2022-08-10T12:24:29.939Z,21.05
2022-08-10T12:25:55.110Z,21.00
2022-08-10T12:26:29.917Z,21.00
2022-08-10T12:27:29.902Z,20.68
2022-08-10T12:28:50.671Z,20.62
2022-08-10T12:29:29.882Z,21.00
2022-08-10T12:30:29.864Z,20.73
2022-08-10T12:31:29.863Z,20.95
2022-08-10T12:32:29.852Z,20.62
2022-08-10T12:33:29.845Z,20.68
2022-08-10T12:34:29.825Z,20.52
2022-08-10T12:35:29.829Z,20.52
2022-08-10T12:36:29.799Z,20.79
2022-08-10T12:37:29.802Z,21.11
2022-08-10T12:38:29.780Z,20.62
2022-08-10T12:39:29.854Z,21.00
2022-08-10T12:40:35.728Z,20.73
2022-08-10T12:41:43.780Z,21.05
2022-08-10T12:43:13.341Z,20.57
2022-08-10T12:44:07.187Z,21.11
2022-08-10T12:44:41.086Z,21.16
2022-08-10T12:45:30.713Z,21.05
2022-08-10T12:46:29.685Z,20.62
2022-08-10T12:47:29.680Z,20.46
2022-08-10T12:48:31.178Z,20.46
2022-08-10T12:49:29.656Z,20.68
2022-08-10T12:50:33.775Z,20.68
2022-08-10T12:51:29.632Z,20.73
2022-08-10T12:52:29.617Z,20.62
2022-08-10T12:53:29.703Z,20.57